Time;durP1;ratioP1;P1;durP2;ratioP2;P2;SDS_P1;SDS_P2;PMS_P1;PMS_P2;Temp;Humidity;BMP_temperature;BMP_pressure;BME280_temperature;BME280_humidity;BME280_pressure;Samples;Min_cycle;Max_cycle;Signal;HPM_P1;HPM_P2
2020/12/20 00:02:13;;;;;;;3.60;3.30;;;;;;;8.33;95.83;101048.09;4957938;28;20916;-73
2020/12/20 00:04:38;;;;;;;3.73;3.20;;;;;;;8.35;95.51;101047.84;4958309;28;20189;-72
2020/12/20 00:07:07;;;;;;;4.90;3.40;;;;;;;8.49;94.90;101039.16;4974404;28;20288;-72
2020/12/20 00:09:33;;;;;;;5.00;3.83;;;;;;;8.41;94.45;101036.88;4974692;28;20263;-71
2020/12/20 00:12:02;;;;;;;5.07;4.20;;;;;;;8.31;95.08;101035.91;4957820;28;20226;-72
2020/12/20 00:14:30;;;;;;;6.03;3.37;;;;;;;8.38;94.86;101040.06;4974842;28;20194;-71
2020/12/20 00:17:06;;;;;;;4.80;3.40;;;;;;;8.37;95.55;101040.31;4973752;28;20222;-72
2020/12/20 00:19:32;;;;;;;4.23;3.57;;;;;;;8.36;95.04;101044.09;4962057;28;20197;-73
2020/12/20 00:22:05;;;;;;;4.93;3.57;;;;;;;8.24;95.88;101040.66;4942614;28;20225;-72
2020/12/20 00:24:31;;;;;;;3.67;3.33;;;;;;;8.15;96.20;101042.97;4958721;28;20194;-72
2020/12/20 00:26:57;;;;;;;3.90;3.10;;;;;;;8.15;96.70;101050.25;4942149;28;20657;-72
2020/12/20 00:29:23;;;;;;;3.63;3.33;;;;;;;7.95;98.46;101055.31;4943074;28;20566;-72
2020/12/20 00:31:48;;;;;;;4.17;3.40;;;;;;;8.03;98.42;101066.53;4958007;28;20257;-73
2020/12/20 00:34:17;;;;;;;3.57;3.23;;;;;;;8.11;98.13;101074.31;4958431;28;20210;-72
2020/12/20 00:36:46;;;;;;;4.03;3.40;;;;;;;8.23;97.24;101063.38;4973956;28;20222;-74
2020/12/20 00:39:13;;;;;;;4.43;3.30;;;;;;;8.16;96.97;101058.13;4974845;28;20293;-72
2020/12/20 00:41:39;;;;;;;3.67;3.37;;;;;;;8.11;97.14;101058.06;4941853;28;20229;-72
2020/12/20 00:44:04;;;;;;;3.37;3.03;;;;;;;8.05;98.10;101067.13;4942590;28;20186;-73
2020/12/20 00:46:30;;;;;;;3.87;3.43;;;;;;;8.04;97.95;101068.19;4978891;28;20232;-72
2020/12/20 00:48:58;;;;;;;4.10;3.13;;;;;;;7.99;97.98;101056.47;4986383;28;20667;-72
2020/12/20 00:51:24;;;;;;;3.83;3.30;;;;;;;8.06;97.89;101057.94;4977091;28;20230;-72
2020/12/20 00:53:49;;;;;;;6.03;4.07;;;;;;;8.12;98.05;101065.09;4978309;28;20189;-73
2020/12/20 00:56:15;;;;;;;3.70;3.37;;;;;;;8.19;97.86;101048.72;4961433;28;20233;-73
2020/12/20 00:58:44;;;;;;;4.13;3.40;;;;;;;8.27;97.12;101051.81;4962972;28;20748;-74
2020/12/20 01:01:10;;;;;;;3.40;3.07;;;;;;;8.40;96.91;101054.16;4963624;28;20217;-72
2020/12/20 01:03:37;;;;;;;3.50;3.20;;;;;;;8.38;96.49;101050.91;4996437;28;20194;-73
2020/12/20 01:06:05;;;;;;;5.30;3.20;;;;;;;8.49;95.61;101052.69;4963036;28;20225;-73
2020/12/20 01:08:35;;;;;;;3.50;3.20;;;;;;;8.51;95.08;101058.66;4964592;28;20182;-73
2020/12/20 01:11:03;;;;;;;3.93;3.43;;;;;;;8.53;94.52;101051.97;4963479;28;20296;-73
2020/12/20 01:13:29;;;;;;;4.30;3.73;;;;;;;8.53;94.59;101059.22;4963750;28;20182;-73
2020/12/20 01:15:55;;;;;;;3.67;3.20;;;;;;;8.59;93.79;101058.22;4969575;28;20637;-73
2020/12/20 01:18:23;;;;;;;4.40;3.13;;;;;;;8.63;93.97;101057.50;4953742;28;20201;-74
2020/12/20 01:20:49;;;;;;;4.53;3.20;;;;;;;8.65;94.00;101059.97;4993204;28;20272;-73
2020/12/20 01:23:15;;;;;;;3.63;3.33;;;;;;;8.80;93.43;101060.97;4958773;28;20949;-73
2020/12/20 01:25:43;;;;;;;4.37;3.10;;;;;;;8.67;93.10;101074.06;4992457;28;20236;-72
2020/12/20 01:28:19;;;;;;;5.30;3.17;;;;;;;8.67;93.36;101068.66;5007495;28;20189;-72
2020/12/20 01:30:47;;;;;;;3.50;3.20;;;;;;;8.74;92.55;101063.88;4974762;28;20242;-72
2020/12/20 01:33:26;;;;;;;4.37;3.07;;;;;;;8.83;92.20;101069.41;4978663;28;20212;-73
2020/12/20 01:36:08;;;;;;;4.47;3.10;;;;;;;8.81;92.62;101053.66;5005775;28;20777;-73
2020/12/20 01:38:35;;;;;;;4.03;3.27;;;;;;;8.75;92.92;101060.91;4976830;28;20198;-73
2020/12/20 01:41:02;;;;;;;3.80;3.23;;;;;;;8.79;93.01;101066.63;4976138;28;20229;-73
2020/12/20 01:43:51;;;;;;;3.93;3.10;;;;;;;8.81;93.27;101061.78;5009226;28;20182;-72
2020/12/20 01:46:24;;;;;;;3.17;2.87;;;;;;;8.81;92.81;101067.19;4989743;28;20357;-73
2020/12/20 01:48:53;;;;;;;3.63;3.30;;;;;;;8.75;92.94;101065.50;4952543;28;20178;-73
2020/12/20 01:51:23;;;;;;;3.43;3.13;;;;;;;8.79;92.80;101061.22;4973061;28;20230;-73
2020/12/20 01:54:01;;;;;;;3.90;3.50;;;;;;;8.77;92.61;101066.06;4946320;28;20218;-73
2020/12/20 01:56:26;;;;;;;4.93;3.33;;;;;;;8.76;92.61;101072.56;4940293;28;20280;-73
2020/12/20 01:58:52;;;;;;;4.50;3.40;;;;;;;8.73;92.42;101060.34;4941405;28;20170;-73
2020/12/20 02:01:33;;;;;;;3.57;3.23;;;;;;;8.73;92.76;101067.66;4944737;28;20603;-72
2020/12/20 02:04:12;;;;;;;3.57;3.27;;;;;;;8.77;92.65;101066.88;4958560;28;20186;-72
2020/12/20 02:06:47;;;;;;;4.53;3.07;;;;;;;8.79;92.36;101069.34;4972612;28;20230;-73
2020/12/20 02:09:21;;;;;;;5.10;3.63;;;;;;;8.73;92.68;101073.88;4959640;28;20567;-73
2020/12/20 02:11:49;;;;;;;4.57;3.50;;;;;;;8.79;92.33;101067.47;4941534;28;20325;-73
2020/12/20 02:14:21;;;;;;;5.17;3.20;;;;;;;8.82;92.19;101058.84;4957831;28;20288;-72
2020/12/20 02:16:54;;;;;;;3.30;3.00;;;;;;;8.73;92.48;101073.06;4973697;28;20271;-73
2020/12/20 02:19:21;;;;;;;3.93;3.30;;;;;;;8.69;93.07;101071.94;4953802;28;20197;-72
2020/12/20 02:21:49;;;;;;;3.87;3.40;;;;;;;8.62;93.84;101068.56;4976911;28;20224;-72
2020/12/20 02:24:21;;;;;;;4.23;3.10;;;;;;;8.58;94.13;101070.97;4961461;28;20272;-73
2020/12/20 02:26:53;;;;;;;3.27;2.97;;;;;;;8.55;94.49;101066.06;4962608;28;20236;-73
2020/12/20 02:29:21;;;;;;;3.80;3.20;;;;;;;8.54;94.14;101063.59;4961842;28;20710;-73
2020/12/20 02:31:47;;;;;;;5.43;3.23;;;;;;;8.50;94.41;101063.28;4975371;28;20233;-73
2020/12/20 02:34:14;;;;;;;4.33;3.93;;;;;;;8.47;95.52;101065.66;4959748;28;20193;-73
2020/12/20 02:36:47;;;;;;;4.70;3.10;;;;;;;8.37;96.50;101059.25;4992233;28;20221;-73
2020/12/20 02:39:21;;;;;;;4.23;3.47;;;;;;;8.43;96.04;101061.81;4977212;28;20173;-72
2020/12/20 02:42:02;;;;;;;3.57;3.27;;;;;;;8.47;95.87;101062.94;4962329;28;20615;-73
2020/12/20 02:44:34;;;;;;;4.13;3.57;;;;;;;8.46;95.94;101056.72;4961353;28;20673;-73
2020/12/20 02:47:03;;;;;;;5.53;3.60;;;;;;;8.59;95.14;101050.09;4950018;28;20229;-73
2020/12/20 02:49:35;;;;;;;4.03;3.53;;;;;;;8.50;95.45;101057.03;4970923;28;20169;-74
2020/12/20 02:52:10;;;;;;;4.67;3.77;;;;;;;8.43;96.03;101056.38;5007823;28;20604;-74
2020/12/20 02:54:36;;;;;;;3.70;3.30;;;;;;;8.43;96.26;101056.38;4975868;28;20182;-74
2020/12/20 02:57:06;;;;;;;3.67;3.10;;;;;;;8.39;96.09;101049.84;4961866;28;20718;-73
2020/12/20 02:59:49;;;;;;;4.90;3.37;;;;;;;8.28;96.59;101045.34;4994583;28;20212;-73
2020/12/20 03:02:19;;;;;;;4.30;3.70;;;;;;;8.40;96.00;101046.06;4962932;28;20222;-73
2020/12/20 03:04:50;;;;;;;4.07;3.67;;;;;;;8.37;96.38;101046.56;4976435;28;20204;-73
2020/12/20 03:07:17;;;;;;;4.10;3.70;;;;;;;8.37;96.18;101046.56;4975249;28;20237;-73
2020/12/20 03:09:52;;;;;;;5.50;3.70;;;;;;;8.40;95.94;101046.06;4975577;28;20269;-72
2020/12/20 03:12:22;;;;;;;3.87;3.47;;;;;;;8.43;95.67;101035.53;4975848;28;20316;-73
2020/12/20 03:14:48;;;;;;;3.90;3.30;;;;;;;8.36;95.84;101039.50;4972479;28;20179;-73
2020/12/20 03:17:17;;;;;;;5.03;3.60;;;;;;;8.53;95.09;101027.59;4978749;28;20246;-72
2020/12/20 03:19:46;;;;;;;4.57;3.70;;;;;;;8.51;94.93;101032.41;4987046;28;20174;-74
2020/12/20 03:22:16;;;;;;;4.13;3.73;;;;;;;8.40;95.43;101035.22;4991468;28;20221;-73
2020/12/20 03:25:19;;;;;;;4.93;3.67;;;;;;;8.36;95.74;101038.69;4958445;28;20272;-73
2020/12/20 03:28:04;;;;;;;5.70;3.77;;;;;;;8.35;95.88;101043.28;4957139;28;20281;-72
2020/12/20 03:31:08;;;;;;;3.90;3.60;;;;;;;8.33;94.46;101048.09;4947496;29;20258;-73
2020/12/20 03:33:52;;;;;;;3.90;3.50;;;;;;;8.34;95.13;101052.47;4950960;29;20237;-73
2020/12/20 03:36:36;;;;;;;4.77;3.20;;;;;;;8.43;94.64;101059.09;4974004;28;20617;-73
2020/12/20 03:39:05;;;;;;;3.73;3.33;;;;;;;8.30;94.94;101062.16;5007571;28;20699;-72
2020/12/20 03:41:31;;;;;;;4.03;3.63;;;;;;;8.38;94.73;101059.00;4989663;28;20347;-73
2020/12/20 03:43:56;;;;;;;4.17;3.67;;;;;;;8.39;94.88;101066.09;4983293;28;20193;-74
2020/12/20 03:46:23;;;;;;;4.00;3.60;;;;;;;8.37;94.78;101065.50;4970142;28;20334;-73
2020/12/20 03:48:50;;;;;;;4.70;3.57;;;;;;;8.33;95.14;101055.41;4982581;28;20190;-73
2020/12/20 03:51:19;;;;;;;4.17;3.47;;;;;;;8.40;94.32;101056.88;4939622;28;20706;-73
2020/12/20 03:53:52;;;;;;;5.07;3.63;;;;;;;8.49;93.69;101052.69;4954894;28;20582;-73
2020/12/20 03:56:19;;;;;;;4.00;3.60;;;;;;;8.37;94.09;101053.84;4954980;28;20230;-72
2020/12/20 03:58:51;;;;;;;4.17;3.60;;;;;;;8.43;94.14;101050.97;4956279;28;20217;-73
2020/12/20 04:01:19;;;;;;;4.03;3.57;;;;;;;8.47;93.90;101055.63;4939013;28;20670;-73
2020/12/20 04:03:49;;;;;;;4.30;3.50;;;;;;;8.43;94.02;101059.09;4987452;28;20213;-73
2020/12/20 04:06:17;;;;;;;4.57;3.57;;;;;;;8.34;94.36;101049.75;4955216;28;20244;-73
2020/12/20 04:08:43;;;;;;;3.80;3.20;;;;;;;8.34;93.95;101057.88;4939211;28;20178;-72
2020/12/20 04:11:27;;;;;;;4.03;3.53;;;;;;;8.21;94.71;101052.00;4972330;28;20729;-72
2020/12/20 04:13:53;;;;;;;3.80;3.50;;;;;;;8.24;94.82;101048.78;4968057;28;20182;-73
2020/12/20 04:16:19;;;;;;;4.20;3.80;;;;;;;8.15;95.22;101059.22;4970499;28;20218;-73
2020/12/20 04:18:44;;;;;;;4.00;3.57;;;;;;;8.04;95.97;101068.19;4955863;28;20668;-74
2020/12/20 04:21:11;;;;;;;4.70;3.83;;;;;;;7.98;96.05;101062.13;4971263;28;20719;-73
2020/12/20 04:23:36;;;;;;;3.60;3.30;;;;;;;8.03;95.36;101054.09;4987501;28;20207;-74
2020/12/20 04:26:12;;;;;;;5.93;4.23;;;;;;;7.95;95.83;101062.59;4971269;28;20222;-72
2020/12/20 04:28:56;;;;;;;4.37;3.87;;;;;;;7.99;95.47;101066.47;4985410;28;20205;-73
2020/12/20 04:31:31;;;;;;;3.77;3.47;;;;;;;7.92;95.53;101068.50;4970565;28;20240;-72
2020/12/20 04:33:57;;;;;;;4.33;3.93;;;;;;;8.03;95.32;101067.63;4955825;28;20194;-73
2020/12/20 04:36:27;;;;;;;4.47;3.90;;;;;;;7.96;95.18;101056.94;4986621;28;20281;-72
2020/12/20 04:39:00;;;;;;;5.03;3.90;;;;;;;7.92;95.69;101061.22;4970972;28;20273;-74
2020/12/20 04:41:33;;;;;;;4.03;3.70;;;;;;;7.89;96.18;101069.00;4954537;28;20226;-73
2020/12/20 04:44:03;;;;;;;6.20;3.67;;;;;;;7.89;95.90;101077.09;4970897;28;20193;-72
2020/12/20 04:46:31;;;;;;;4.10;3.70;;;;;;;7.87;95.62;101076.53;4977200;28;20786;-73
2020/12/20 04:49:22;;;;;;;5.20;3.50;;;;;;;7.91;95.26;101073.13;4965449;28;20718;-73
2020/12/20 04:51:50;;;;;;;4.37;3.97;;;;;;;7.89;95.89;101069.00;4954738;28;20230;-73
2020/12/20 04:54:16;;;;;;;6.43;3.73;;;;;;;7.93;95.28;101086.38;4938554;28;20225;-72
2020/12/20 04:56:42;;;;;;;6.23;3.90;;;;;;;7.89;95.76;101086.03;4938211;28;20318;-73
2020/12/20 04:59:13;;;;;;;4.77;3.70;;;;;;;7.95;94.99;101073.41;4955560;28;20220;-73
2020/12/20 05:01:56;;;;;;;4.27;3.80;;;;;;;7.93;95.05;101080.97;4941420;28;20249;-73
2020/12/20 05:04:22;;;;;;;4.40;3.50;;;;;;;7.91;94.96;101083.94;4954472;28;20188;-73
2020/12/20 05:06:48;;;;;;;4.47;3.93;;;;;;;7.82;95.60;101074.56;4956752;28;20707;-73
2020/12/20 05:09:27;;;;;;;4.33;3.50;;;;;;;7.84;95.33;101082.44;4945775;28;20671;-73
2020/12/20 05:12:01;;;;;;;5.37;3.80;;;;;;;7.78;95.68;101083.41;4961559;28;20218;-73
2020/12/20 05:14:35;;;;;;;4.37;3.97;;;;;;;7.66;96.42;101079.16;4978075;28;20243;-72
2020/12/20 05:17:17;;;;;;;4.30;3.50;;;;;;;7.69;96.57;101087.56;4980997;28;20276;-73
2020/12/20 05:19:54;;;;;;;4.10;3.67;;;;;;;7.69;96.56;101079.44;4947752;28;20193;-73
2020/12/20 05:22:23;;;;;;;6.27;4.60;;;;;;;7.59;97.33;101089.28;4957160;28;20222;-73
2020/12/20 05:24:59;;;;;;;5.07;3.93;;;;;;;7.60;97.05;101091.75;4942868;28;20224;-73
2020/12/20 05:27:33;;;;;;;5.67;4.30;;;;;;;7.52;97.74;101088.59;4929151;28;20599;-72
2020/12/20 05:30:15;;;;;;;5.10;3.93;;;;;;;7.58;97.02;101088.47;4957662;28;20257;-74
2020/12/20 05:33:01;;;;;;;5.23;4.20;;;;;;;7.53;97.12;101091.06;4996983;28;20221;-73
2020/12/20 05:35:28;;;;;;;4.50;4.10;;;;;;;7.68;96.39;101085.94;4992048;28;20330;-73
2020/12/20 05:37:57;;;;;;;4.23;3.83;;;;;;;7.55;97.12;101091.63;4993821;28;20320;-73
2020/12/20 05:40:29;;;;;;;4.20;3.80;;;;;;;7.64;96.66;101084.78;4992571;28;20676;-73
2020/12/20 05:43:00;;;;;;;4.87;3.80;;;;;;;7.64;96.19;101086.66;4992850;28;20737;-73
2020/12/20 05:45:32;;;;;;;4.40;3.97;;;;;;;7.71;96.30;101098.97;4971891;28;20714;-73
2020/12/20 05:48:13;;;;;;;4.40;4.00;;;;;;;7.55;96.69;101097.03;4963156;28;20587;-73
2020/12/20 05:50:42;;;;;;;5.90;4.97;;;;;;;7.59;96.73;101090.09;4960022;28;20230;-71
2020/12/20 05:53:08;;;;;;;5.37;4.37;;;;;;;7.46;96.85;101094.97;4961301;28;20192;-71
2020/12/20 05:55:38;;;;;;;6.33;4.40;;;;;;;7.37;97.89;101091.81;4959312;28;20217;-72
2020/12/20 05:58:13;;;;;;;4.27;3.83;;;;;;;7.32;98.20;101097.13;4960421;28;20557;-71
2020/12/20 06:00:46;;;;;;;4.80;3.87;;;;;;;7.27;98.32;101108.91;4959961;28;20576;-73
2020/12/20 06:03:12;;;;;;;6.70;3.80;;;;;;;7.39;97.32;101105.09;4961854;28;20633;-73
2020/12/20 06:05:44;;;;;;;4.60;4.10;;;;;;;7.39;97.46;101105.09;4975396;28;20280;-71
2020/12/20 06:08:13;;;;;;;5.47;4.07;;;;;;;7.30;97.94;101101.13;4992484;28;20261;-73
2020/12/20 06:10:41;;;;;;;5.10;4.10;;;;;;;7.25;98.18;101097.50;4975492;28;20279;-71
2020/12/20 06:13:10;;;;;;;5.00;4.10;;;;;;;7.21;98.54;101093.66;4960398;28;20204;-72
2020/12/20 06:15:37;;;;;;;4.83;4.10;;;;;;;7.23;98.34;101094.22;4956199;28;20254;-72
2020/12/20 06:18:14;;;;;;;5.90;4.10;;;;;;;7.19;98.80;101103.88;4964049;28;20273;-72
2020/12/20 06:20:53;;;;;;;5.03;4.20;;;;;;;7.18;98.86;101092.25;4956763;28;20213;-74
2020/12/20 06:23:23;;;;;;;6.10;4.10;;;;;;;7.17;99.07;101100.59;4973650;28;20194;-74
2020/12/20 06:25:50;;;;;;;4.43;3.97;;;;;;;7.20;99.21;101092.00;4956159;28;20711;-74
2020/12/20 06:28:20;;;;;;;4.90;4.40;;;;;;;7.12;99.84;101095.91;4956719;28;20671;-71
2020/12/20 06:30:46;;;;;;;4.40;3.97;;;;;;;7.06;99.42;101094.16;4956073;28;20230;-73
2020/12/20 06:33:38;;;;;;;5.50;4.23;;;;;;;7.11;100.00;101096.16;4972911;28;20214;-73
2020/12/20 06:36:10;;;;;;;4.33;3.90;;;;;;;7.19;100.00;101087.69;4959127;28;20659;-72
2020/12/20 06:38:39;;;;;;;4.70;4.30;;;;;;;7.16;99.89;101096.25;4956556;28;20627;-73
2020/12/20 06:41:07;;;;;;;7.00;4.57;;;;;;;7.16;99.76;101096.25;4971860;28;20241;-72
2020/12/20 06:43:34;;;;;;;5.23;4.70;;;;;;;7.18;100.00;101102.22;4972507;28;20266;-73
2020/12/20 06:46:02;;;;;;;4.60;4.20;;;;;;;7.21;99.89;101101.75;4978774;28;20217;-73
2020/12/20 06:48:30;;;;;;;4.80;4.40;;;;;;;7.24;99.95;101090.47;4983582;28;20197;-72
2020/12/20 06:50:56;;;;;;;4.80;3.93;;;;;;;7.28;99.72;101081.66;4992092;28;20228;-73
2020/12/20 06:53:42;;;;;;;4.80;4.27;;;;;;;7.28;99.70;101082.47;4975741;28;20174;-72
2020/12/20 06:56:16;;;;;;;4.83;4.33;;;;;;;7.28;99.33;101087.84;4990248;28;20596;-72
2020/12/20 06:58:42;;;;;;;5.00;4.50;;;;;;;7.21;99.42;101078.25;4991590;28;20714;-73
2020/12/20 07:01:10;;;;;;;6.13;4.63;;;;;;;7.17;99.44;101081.69;4974944;28;20652;-73
2020/12/20 07:03:38;;;;;;;6.33;5.23;;;;;;;7.26;99.35;101082.97;4991732;28;20178;-72
2020/12/20 07:06:06;;;;;;;5.20;4.70;;;;;;;7.33;99.18;101082.56;4990538;28;20236;-73
2020/12/20 07:08:32;;;;;;;5.70;4.90;;;;;;;7.27;98.89;101085.44;4991320;28;20615;-72
2020/12/20 07:11:16;;;;;;;6.73;5.20;;;;;;;7.32;98.49;101082.81;4958323;28;20296;-72
2020/12/20 07:13:43;;;;;;;5.97;5.37;;;;;;;7.33;98.66;101085.25;4960290;28;20276;-72
2020/12/20 07:16:38;;;;;;;5.97;5.10;;;;;;;7.45;97.93;101094.13;4967099;28;20296;-72
2020/12/20 07:19:04;;;;;;;6.07;5.47;;;;;;;7.45;98.09;101086.03;4962925;28;20208;-74
2020/12/20 07:21:30;;;;;;;5.50;4.83;;;;;;;7.33;98.26;101090.66;4990918;28;20271;-73
2020/12/20 07:24:10;;;;;;;5.53;5.03;;;;;;;7.44;98.16;101092.50;4991948;28;20194;-72
2020/12/20 07:26:36;;;;;;;7.57;5.67;;;;;;;7.48;97.52;101103.66;4976304;28;20233;-72
2020/12/20 07:29:05;;;;;;;5.53;4.80;;;;;;;7.29;98.13;101116.53;4974720;28;20556;-73
2020/12/20 07:31:33;;;;;;;7.00;5.23;;;;;;;7.27;98.00;101117.84;4976088;28;20645;-73
2020/12/20 07:34:02;;;;;;;7.80;5.40;;;;;;;7.26;98.49;101115.38;4959466;28;20270;-73
2020/12/20 07:36:34;;;;;;;5.53;4.83;;;;;;;7.35;97.97;101110.16;4974974;28;20217;-74
2020/12/20 07:39:00;;;;;;;7.47;5.57;;;;;;;7.41;98.25;101114.59;4991868;28;20205;-73
2020/12/20 07:41:25;;;;;;;7.17;5.37;;;;;;;7.51;97.79;101124.78;4974499;28;20691;-72
2020/12/20 07:43:52;;;;;;;6.27;5.57;;;;;;;7.43;96.95;101138.69;5008298;28;20606;-73
2020/12/20 07:46:18;;;;;;;7.43;5.97;;;;;;;7.53;96.65;101138.91;4973912;28;20328;-74
2020/12/20 07:48:46;;;;;;;7.27;5.97;;;;;;;7.51;97.00;101141.00;4988144;28;20617;-73
2020/12/20 07:51:23;;;;;;;6.20;5.47;;;;;;;7.51;97.35;101141.84;4971081;28;20233;-73
2020/12/20 07:53:54;;;;;;;6.90;6.13;;;;;;;7.45;97.36;101141.97;4955869;28;20190;-73
2020/12/20 07:56:23;;;;;;;6.67;6.07;;;;;;;7.53;96.94;101137.00;4954393;28;20261;-73
2020/12/20 07:58:52;;;;;;;6.43;5.83;;;;;;;7.52;96.84;101127.25;4971515;28;20194;-73
2020/12/20 08:01:18;;;;;;;7.23;6.57;;;;;;;7.46;97.10;101130.09;4970674;28;20225;-74
2020/12/20 08:03:46;;;;;;;6.93;6.23;;;;;;;7.57;96.85;101142.75;4971449;28;20192;-72
2020/12/20 08:06:15;;;;;;;9.07;7.33;;;;;;;7.57;96.96;101140.88;4954893;28;20250;-72
2020/12/20 08:08:42;;;;;;;8.27;6.97;;;;;;;7.65;96.62;101132.38;4955518;28;20273;-72
2020/12/20 08:11:26;;;;;;;7.97;7.17;;;;;;;7.68;96.59;101134.59;4954633;28;20229;-73
2020/12/20 08:13:56;;;;;;;7.37;6.40;;;;;;;7.64;97.64;101129.91;4957116;28;20579;-73
2020/12/20 08:16:30;;;;;;;8.50;6.40;;;;;;;7.84;95.76;101131.13;4967361;28;20254;-72
2020/12/20 08:19:03;;;;;;;7.23;6.53;;;;;;;7.64;96.13;101130.75;4967202;28;20193;-72
2020/12/20 08:21:58;;;;;;;6.97;6.33;;;;;;;7.86;96.04;101121.69;4958861;28;20256;-73
2020/12/20 08:24:29;;;;;;;8.77;7.37;;;;;;;7.74;96.56;101131.72;4990636;28;20225;-72
2020/12/20 08:26:55;;;;;;;7.57;6.50;;;;;;;7.80;96.63;101130.78;4974836;28;20703;-72
2020/12/20 08:29:22;;;;;;;7.40;6.70;;;;;;;7.70;97.24;101129.75;4973435;28;20601;-74
2020/12/20 08:31:49;;;;;;;7.70;6.63;;;;;;;7.72;97.66;101128.44;4977675;28;20226;-72
2020/12/20 08:34:18;;;;;;;7.53;6.73;;;;;;;7.81;97.28;101131.59;5006489;28;20270;-72
2020/12/20 08:36:45;;;;;;;7.63;6.83;;;;;;;7.83;96.51;101129.47;4986999;28;20217;-72
2020/12/20 08:39:12;;;;;;;8.17;7.23;;;;;;;7.82;97.57;101133.22;4977538;28;20196;-72
2020/12/20 08:41:38;;;;;;;8.53;7.33;;;;;;;7.77;98.52;101133.97;4978787;28;20233;-73
2020/12/20 08:44:13;;;;;;;7.77;6.87;;;;;;;7.92;97.86;101133.41;4977769;28;20556;-73
2020/12/20 08:46:41;;;;;;;8.60;7.80;;;;;;;7.84;97.89;101136.53;5006526;28;20231;-72
2020/12/20 08:49:17;;;;;;;8.30;7.43;;;;;;;7.95;97.72;101135.63;4985704;28;20288;-72
2020/12/20 08:51:48;;;;;;;8.10;7.37;;;;;;;7.97;97.76;101141.63;5009168;28;20225;-72
2020/12/20 08:54:26;;;;;;;8.40;7.50;;;;;;;7.99;97.72;101134.91;4993466;28;20186;-72
2020/12/20 08:56:59;;;;;;;9.43;7.97;;;;;;;7.93;98.31;101140.44;4976827;28;20226;-72
2020/12/20 08:59:40;;;;;;;9.17;8.17;;;;;;;7.96;98.23;101145.38;4989766;28;20241;-72
2020/12/20 09:02:06;;;;;;;8.73;7.83;;;;;;;7.94;98.62;101155.63;4991757;28;20329;-72
2020/12/20 09:04:34;;;;;;;8.50;7.40;;;;;;;7.88;99.25;101157.41;4961127;28;20196;-72
2020/12/20 09:07:08;;;;;;;8.67;7.87;;;;;;;7.86;99.26;101161.44;4992953;28;20264;-72
2020/12/20 09:09:34;;;;;;;8.70;7.90;;;;;;;7.90;98.93;101159.91;4961344;28;20251;-73
2020/12/20 09:12:22;;;;;;;8.70;7.80;;;;;;;7.93;98.87;101157.53;4977291;28;20591;-72
2020/12/20 09:15:05;;;;;;;8.50;7.60;;;;;;;7.87;99.70;101163.88;4977473;28;20655;-73
2020/12/20 09:17:32;;;;;;;10.67;8.40;;;;;;;8.04;99.13;101154.75;4992862;28;20224;-73
2020/12/20 09:19:58;;;;;;;8.63;7.70;;;;;;;8.06;98.80;101149.91;4992223;28;20190;-72
2020/12/20 09:22:57;;;;;;;10.13;8.27;;;;;;;7.99;98.77;101144.91;4941083;28;20854;-73
2020/12/20 09:25:44;;;;;;;9.03;7.63;;;;;;;8.21;98.47;101150.22;4977587;28;20237;-73
2020/12/20 09:28:14;;;;;;;9.13;8.23;;;;;;;8.09;98.21;101143.19;4988971;28;20178;-73
2020/12/20 09:30:43;;;;;;;8.77;7.80;;;;;;;8.12;98.66;101148.16;4992499;28;20237;-72
2020/12/20 09:33:31;;;;;;;9.90;8.03;;;;;;;8.20;98.46;101150.44;4965284;28;20194;-73
2020/12/20 09:36:03;;;;;;;13.00;11.63;;;;;;;8.16;98.86;101158.22;5007822;28;20221;-73
2020/12/20 09:38:30;;;;;;;9.80;8.20;;;;;;;8.30;98.19;101143.34;4991006;28;20198;-74
2020/12/20 09:41:00;;;;;;;11.43;10.23;;;;;;;8.37;97.85;101138.59;4991662;28;20296;-72
2020/12/20 09:43:26;;;;;;;14.40;12.83;;;;;;;8.48;97.18;101135.78;4985978;28;20190;-75
2020/12/20 09:45:53;;;;;;;9.77;8.13;;;;;;;8.58;97.26;101140.53;5009378;28;20237;-74
2020/12/20 09:48:21;;;;;;;9.27;8.27;;;;;;;8.48;97.73;101151.22;4967375;28;20190;-74
2020/12/20 09:50:47;;;;;;;8.70;7.90;;;;;;;8.66;97.91;101143.66;4975683;28;20703;-74
2020/12/20 09:53:13;;;;;;;8.80;7.90;;;;;;;8.68;96.83;101151.50;4980799;28;20214;-73
2020/12/20 09:55:41;;;;;;;8.40;7.27;;;;;;;8.70;97.02;101149.38;5002404;28;20255;-73
2020/12/20 09:58:17;;;;;;;8.67;7.40;;;;;;;8.81;96.21;101145.75;4992758;28;20647;-73
2020/12/20 10:00:43;;;;;;;8.57;7.43;;;;;;;8.88;96.29;101148.06;4991703;28;20714;-74
2020/12/20 10:03:09;;;;;;;9.55;8.65;;;;;;;9.27;94.62;101149.66;4974619;28;20814;-73
2020/12/20 10:05:35;;;;;;;8.80;8.00;;;;;;;9.14;94.47;101151.91;4990720;28;20229;-72
2020/12/20 10:08:05;;;;;;;8.67;7.50;;;;;;;9.14;94.67;101147.34;4987719;28;20189;-73
2020/12/20 10:10:33;;;;;;;8.77;7.67;;;;;;;9.20;94.23;101143.59;4964358;28;20218;-73
2020/12/20 10:13:01;;;;;;;8.50;7.70;;;;;;;9.23;93.92;101140.41;4989859;28;20184;-74
2020/12/20 10:15:27;;;;;;;8.10;7.30;;;;;;;9.24;93.34;101140.13;4974568;28;20691;-73
2020/12/20 10:17:53;;;;;;;8.43;7.57;;;;;;;9.16;93.17;101144.34;4972259;28;20194;-73
2020/12/20 10:20:19;;;;;;;8.17;7.37;;;;;;;9.23;93.94;101140.41;4952196;28;20204;-73
2020/12/20 10:22:46;;;;;;;7.97;7.17;;;;;;;9.50;92.51;101141.28;4960348;28;20237;-72
2020/12/20 10:25:12;;;;;;;8.90;7.50;;;;;;;9.36;93.01;101134.59;4974818;28;20643;-73
2020/12/20 10:27:41;;;;;;;7.93;7.13;;;;;;;9.62;92.13;101138.16;4992010;28;20297;-72
2020/12/20 10:30:09;;;;;;;9.03;6.90;;;;;;;9.60;91.75;101137.59;4990872;28;20218;-72
2020/12/20 10:32:37;;;;;;;8.20;7.27;;;;;;;9.54;91.67;101136.97;4974091;28;20292;-72
2020/12/20 10:35:05;;;;;;;8.63;7.30;;;;;;;9.62;92.02;101135.44;4974244;28;20659;-72
2020/12/20 10:37:30;;;;;;;8.07;6.80;;;;;;;9.46;92.81;101134.72;4957203;28;20205;-73
2020/12/20 10:39:56;;;;;;;7.67;6.87;;;;;;;9.53;92.55;101133.44;4972526;28;20592;-72
2020/12/20 10:42:24;;;;;;;8.03;6.93;;;;;;;9.71;91.92;101136.66;4988873;28;20260;-72
2020/12/20 10:44:55;;;;;;;8.20;7.17;;;;;;;9.71;91.47;101131.22;4994359;28;20222;-72
2020/12/20 10:47:23;;;;;;;7.67;6.87;;;;;;;9.55;92.37;101133.19;4971703;28;20886;-73
2020/12/20 10:49:50;;;;;;;7.40;6.67;;;;;;;9.62;92.07;101130.03;4971987;28;20187;-72
2020/12/20 10:52:17;;;;;;;8.10;6.87;;;;;;;9.66;92.04;101131.16;4955425;28;20250;-72
2020/12/20 10:54:46;;;;;;;8.03;7.20;;;;;;;9.76;91.37;101127.72;4955654;28;20170;-72
2020/12/20 10:57:16;;;;;;;7.97;7.17;;;;;;;9.66;92.08;101136.56;4956169;28;20580;-73
2020/12/20 10:59:42;;;;;;;7.60;6.80;;;;;;;9.69;92.28;101135.28;4983250;28;20197;-73
2020/12/20 11:02:08;;;;;;;7.50;6.73;;;;;;;9.55;92.51;101133.19;5006296;28;20217;-73
2020/12/20 11:04:34;;;;;;;9.17;7.87;;;;;;;9.66;91.85;101136.56;4974207;28;20252;-72
2020/12/20 11:07:01;;;;;;;7.37;6.67;;;;;;;9.59;92.33;101132.44;4997231;28;20221;-72
2020/12/20 11:09:27;;;;;;;8.53;7.00;;;;;;;9.76;91.85;101130.44;4968518;28;20263;-73
2020/12/20 11:11:53;;;;;;;8.60;7.40;;;;;;;9.61;93.22;101128.41;4960562;28;20210;-72
2020/12/20 11:14:19;;;;;;;8.57;7.50;;;;;;;9.81;92.19;101115.03;5006459;28;20205;-72
2020/12/20 11:16:44;;;;;;;10.30;9.03;;;;;;;9.89;91.30;101113.75;4989935;28;20217;-71
2020/12/20 11:19:13;;;;;;;31.60;26.27;;;;;;;9.89;91.24;101124.59;4972552;28;20175;-71
2020/12/20 11:21:39;;;;;;;8.53;7.43;;;;;;;9.50;92.33;101116.88;4972718;28;20244;-72
2020/12/20 11:24:07;;;;;;;9.27;7.27;;;;;;;9.59;92.84;101114.25;4990794;28;20217;-74
2020/12/20 11:26:35;;;;;;;8.43;7.10;;;;;;;9.71;92.52;101106.81;4954116;28;20307;-71
2020/12/20 11:29:01;;;;;;;8.57;7.43;;;;;;;9.73;92.49;101110.09;4973233;28;20205;-70
2020/12/20 11:31:28;;;;;;;8.43;7.37;;;;;;;9.57;92.46;101117.50;4989612;28;20814;-74
2020/12/20 11:33:56;;;;;;;9.20;7.13;;;;;;;9.43;93.77;101119.78;4974961;28;20200;-71
2020/12/20 11:36:24;;;;;;;8.23;7.43;;;;;;;9.37;94.71;101114.53;4989060;28;20596;-72
2020/12/20 11:38:50;;;;;;;8.23;7.43;;;;;;;9.63;93.64;101107.28;4973986;28;20182;-72
2020/12/20 11:41:20;;;;;;;8.47;7.60;;;;;;;9.78;92.95;101112.00;4989710;28;20206;-71
2020/12/20 11:43:46;;;;;;;8.20;7.40;;;;;;;9.76;92.76;101109.59;4962293;28;20178;-72
2020/12/20 11:46:12;;;;;;;8.13;7.20;;;;;;;9.61;93.11;101108.59;4980858;28;20237;-72
2020/12/20 11:48:37;;;;;;;8.53;7.27;;;;;;;9.68;93.89;101107.31;4998645;28;20666;-72
2020/12/20 11:51:06;;;;;;;9.33;6.73;;;;;;;9.81;93.10;101111.50;5004903;28;20295;-72